Terminal Aerodrome Forecast
Issued by NWS Duluth, MN

Home | Current Version | Previous Version | Text Only | Print | Product List | Glossary On
Versions: 1 2 3 4 5 6 7 8 9 10 11 12 13 14 15 16 17 18 19 20 21 22 23 24 25 26 27 28 29 30 31 32
667
FTUS43 KDLH 280129 AAA
TAFDLH
TAF AMD
KDLH 280129Z 2801/2824 11015KT P6SM OVC005
     FM280500 12004KT P6SM VCSH BKN006
     FM280700 13005KT 4SM -SN OVC006
     FM281000 07004KT 1 1/2SM -SN OVC008
     FM281400 03007KT 1 1/2SM -SN OVC008
     FM281700 03009KT P6SM VCSH OVC008
     FM281900 03009KT P6SM OVC012=

USA.gov is the U.S. government's official web portal to all federal, state and local government web resources and services.